sensor_id;sensor_type;location;lat;lon;timestamp;P1;durP1;ratioP1;P2;durP2;ratioP2
44696;SDS011;57264;47.480;19.354;2023-02-28T09:45:56;8.93;;;2.93;;
44696;SDS011;57264;47.480;19.354;2023-02-28T09:51:03;3.63;;;3.30;;
44696;SDS011;57264;47.480;19.354;2023-02-28T09:53:36;6.33;;;3.20;;
44696;SDS011;57264;47.480;19.354;2023-02-28T09:56:06;5.57;;;4.20;;
44696;SDS011;57264;47.480;19.354;2023-02-28T10:01:30;5.57;;;4.75;;
44696;SDS011;57264;47.480;19.354;2023-02-28T10:06:47;5.35;;;4.00;;
44696;SDS011;57264;47.480;19.354;2023-02-28T10:09:29;5.97;;;4.55;;
44696;SDS011;57264;47.480;19.354;2023-02-28T10:12:01;11.77;;;5.22;;
44696;SDS011;57264;47.480;19.354;2023-02-28T10:14:30;16.15;;;5.68;;
44696;SDS011;57264;47.480;19.354;2023-02-28T10:19:33;6.25;;;4.63;;
44696;SDS011;57264;47.480;19.354;2023-02-28T10:24:48;10.52;;;5.20;;
44696;SDS011;57264;47.480;19.354;2023-02-28T10:27:19;8.07;;;5.55;;
44696;SDS011;57264;47.480;19.354;2023-02-28T10:29:46;11.38;;;5.65;;
44696;SDS011;57264;47.480;19.354;2023-02-28T10:32:15;6.82;;;5.25;;
44696;SDS011;57264;47.480;19.354;2023-02-28T10:34:43;11.32;;;5.68;;
44696;SDS011;57264;47.480;19.354;2023-02-28T10:37:09;6.68;;;5.55;;
44696;SDS011;57264;47.480;19.354;2023-02-28T10:39:37;6.53;;;4.97;;
44696;SDS011;57264;47.480;19.354;2023-02-28T10:42:18;10.82;;;6.25;;
44696;SDS011;57264;47.480;19.354;2023-02-28T10:45:25;7.60;;;5.22;;
44696;SDS011;57264;47.480;19.354;2023-02-28T10:55:41;8.18;;;5.57;;
44696;SDS011;57264;47.480;19.354;2023-02-28T11:00:54;6.50;;;4.95;;
44696;SDS011;57264;47.480;19.354;2023-02-28T11:03:38;7.33;;;5.27;;
44696;SDS011;57264;47.480;19.354;2023-02-28T11:06:04;8.77;;;5.68;;
44696;SDS011;57264;47.480;19.354;2023-02-28T11:08:33;6.80;;;5.50;;
44696;SDS011;57264;47.480;19.354;2023-02-28T11:11:00;6.65;;;4.82;;
44696;SDS011;57264;47.480;19.354;2023-02-28T11:13:34;7.40;;;5.07;;
44696;SDS011;57264;47.480;19.354;2023-02-28T11:16:06;8.32;;;5.65;;
44696;SDS011;57264;47.480;19.354;2023-02-28T11:21:06;7.60;;;4.75;;
44696;SDS011;57264;47.480;19.354;2023-02-28T11:23:35;8.13;;;5.18;;
44696;SDS011;57264;47.480;19.354;2023-02-28T11:26:05;11.75;;;5.45;;
44696;SDS011;57264;47.480;19.354;2023-02-28T11:28:35;19.85;;;6.40;;
44696;SDS011;57264;47.480;19.354;2023-02-28T11:31:14;9.07;;;5.85;;
44696;SDS011;57264;47.480;19.354;2023-02-28T11:33:53;10.02;;;6.22;;
44696;SDS011;57264;47.480;19.354;2023-02-28T11:36:28;9.93;;;5.70;;
44696;SDS011;57264;47.480;19.354;2023-02-28T11:38:56;7.97;;;6.07;;
44696;SDS011;57264;47.480;19.354;2023-02-28T11:52:40;9.23;;;5.93;;
44696;SDS011;57264;47.480;19.354;2023-02-28T12:01:03;6.93;;;4.90;;
44696;SDS011;57264;47.480;19.354;2023-02-28T12:06:23;6.55;;;5.40;;
44696;SDS011;57264;47.480;19.354;2023-02-28T12:09:08;8.63;;;6.15;;
44696;SDS011;57264;47.480;19.354;2023-02-28T12:11:48;10.40;;;5.90;;
44696;SDS011;57264;47.480;19.354;2023-02-28T12:25:21;9.57;;;6.07;;
44696;SDS011;57264;47.480;19.354;2023-02-28T12:28:01;10.20;;;6.38;;
44696;SDS011;57264;47.480;19.354;2023-02-28T12:30:31;10.70;;;7.28;;
44696;SDS011;57264;47.480;19.354;2023-02-28T12:35:37;10.88;;;6.53;;
44696;SDS011;57264;47.480;19.354;2023-02-28T12:38:10;9.00;;;6.13;;
44696;SDS011;57264;47.480;19.354;2023-02-28T12:43:44;9.40;;;6.95;;
44696;SDS011;57264;47.480;19.354;2023-02-28T12:46:18;8.93;;;7.18;;
44696;SDS011;57264;47.480;19.354;2023-02-28T12:48:48;10.63;;;6.50;;
44696;SDS011;57264;47.480;19.354;2023-02-28T12:51:18;10.38;;;6.82;;
44696;SDS011;57264;47.480;19.354;2023-02-28T12:59:06;9.90;;;7.65;;
44696;SDS011;57264;47.480;19.354;2023-02-28T13:02:00;21.08;;;7.10;;
44696;SDS011;57264;47.480;19.354;2023-02-28T13:07:29;25.02;;;8.07;;
44696;SDS011;57264;47.480;19.354;2023-02-28T13:09:54;39.10;;;7.68;;
44696;SDS011;57264;47.480;19.354;2023-02-28T13:12:22;9.00;;;6.38;;
44696;SDS011;57264;47.480;19.354;2023-02-28T13:14:48;11.60;;;7.30;;
44696;SDS011;57264;47.480;19.354;2023-02-28T13:17:21;11.02;;;6.63;;
44696;SDS011;57264;47.480;19.354;2023-02-28T13:20:13;10.15;;;6.95;;
44696;SDS011;57264;47.480;19.354;2023-02-28T13:22:42;12.13;;;7.28;;
44696;SDS011;57264;47.480;19.354;2023-02-28T13:28:02;13.35;;;6.40;;
44696;SDS011;57264;47.480;19.354;2023-02-28T13:33:25;16.05;;;6.63;;
44696;SDS011;57264;47.480;19.354;2023-02-28T13:38:42;11.60;;;6.68;;
44696;SDS011;57264;47.480;19.354;2023-02-28T13:52:17;16.80;;;6.20;;
44696;SDS011;57264;47.480;19.354;2023-02-28T14:08:54;10.25;;;6.22;;
44696;SDS011;57264;47.480;19.354;2023-02-28T14:11:25;12.45;;;6.43;;
44696;SDS011;57264;47.480;19.354;2023-02-28T14:13:51;11.10;;;7.13;;
44696;SDS011;57264;47.480;19.354;2023-02-28T14:16:17;10.27;;;6.70;;
44696;SDS011;57264;47.480;19.354;2023-02-28T14:18:50;9.43;;;6.18;;
44696;SDS011;57264;47.480;19.354;2023-02-28T14:21:35;8.60;;;6.38;;
44696;SDS011;57264;47.480;19.354;2023-02-28T14:27:15;12.65;;;6.75;;
44696;SDS011;57264;47.480;19.354;2023-02-28T14:37:51;12.38;;;7.57;;
44696;SDS011;57264;47.480;19.354;2023-02-28T14:40:22;10.15;;;6.80;;
44696;SDS011;57264;47.480;19.354;2023-02-28T14:42:58;17.20;;;7.18;;
44696;SDS011;57264;47.480;19.354;2023-02-28T14:45:30;12.82;;;7.43;;
44696;SDS011;57264;47.480;19.354;2023-02-28T14:47:58;10.95;;;6.85;;
44696;SDS011;57264;47.480;19.354;2023-02-28T14:50:31;15.82;;;7.45;;
44696;SDS011;57264;47.480;19.354;2023-02-28T14:53:00;14.98;;;6.63;;
44696;SDS011;57264;47.480;19.354;2023-02-28T14:55:30;8.65;;;7.00;;
44696;SDS011;57264;47.480;19.354;2023-02-28T14:57:59;11.38;;;6.78;;
44696;SDS011;57264;47.480;19.354;2023-02-28T15:00:35;9.05;;;6.35;;
44696;SDS011;57264;47.480;19.354;2023-02-28T15:06:19;11.40;;;7.65;;
44696;SDS011;57264;47.480;19.354;2023-02-28T15:08:40;17.55;;;7.82;;
44696;SDS011;57264;47.480;19.354;2023-02-28T15:11:12;12.20;;;7.55;;
44696;SDS011;57264;47.480;19.354;2023-02-28T15:13:46;13.68;;;7.43;;
44696;SDS011;57264;47.480;19.354;2023-02-28T15:19:05;11.60;;;7.80;;
44696;SDS011;57264;47.480;19.354;2023-02-28T15:21:34;10.25;;;7.28;;
44696;SDS011;57264;47.480;19.354;2023-02-28T15:26:52;11.65;;;7.82;;
44696;SDS011;57264;47.480;19.354;2023-02-28T15:29:21;13.23;;;8.05;;
44696;SDS011;57264;47.480;19.354;2023-02-28T15:31:50;12.10;;;7.90;;
44696;SDS011;57264;47.480;19.354;2023-02-28T15:34:27;10.07;;;7.38;;
44696;SDS011;57264;47.480;19.354;2023-02-28T15:36:59;19.92;;;8.25;;
44696;SDS011;57264;47.480;19.354;2023-02-28T15:39:26;13.53;;;8.83;;
44696;SDS011;57264;47.480;19.354;2023-02-28T15:44:42;19.35;;;7.78;;
44696;SDS011;57264;47.480;19.354;2023-02-28T15:47:16;13.47;;;8.00;;
44696;SDS011;57264;47.480;19.354;2023-02-28T15:49:47;10.43;;;7.45;;
44696;SDS011;57264;47.480;19.354;2023-02-28T15:52:17;12.60;;;8.15;;
44696;SDS011;57264;47.480;19.354;2023-02-28T15:54:46;13.25;;;7.93;;
44696;SDS011;57264;47.480;19.354;2023-02-28T15:57:33;12.88;;;8.57;;
44696;SDS011;57264;47.480;19.354;2023-02-28T16:00:00;14.35;;;8.70;;
44696;SDS011;57264;47.480;19.354;2023-02-28T16:02:35;17.30;;;8.15;;
44696;SDS011;57264;47.480;19.354;2023-02-28T16:07:53;11.25;;;8.23;;
44696;SDS011;57264;47.480;19.354;2023-02-28T16:10:20;11.85;;;7.75;;
44696;SDS011;57264;47.480;19.354;2023-02-28T16:12:50;11.55;;;8.13;;
44696;SDS011;57264;47.480;19.354;2023-02-28T16:15:19;17.17;;;7.97;;
44696;SDS011;57264;47.480;19.354;2023-02-28T16:17:47;11.57;;;8.35;;
44696;SDS011;57264;47.480;19.354;2023-02-28T16:20:18;12.25;;;7.85;;
44696;SDS011;57264;47.480;19.354;2023-02-28T16:22:44;11.13;;;7.45;;
44696;SDS011;57264;47.480;19.354;2023-02-28T16:25:18;10.82;;;7.75;;
44696;SDS011;57264;47.480;19.354;2023-02-28T16:27:46;13.48;;;7.53;;
44696;SDS011;57264;47.480;19.354;2023-02-28T16:30:18;9.95;;;7.68;;
44696;SDS011;57264;47.480;19.354;2023-02-28T16:32:52;12.68;;;8.57;;
44696;SDS011;57264;47.480;19.354;2023-02-28T16:35:20;19.00;;;8.98;;
44696;SDS011;57264;47.480;19.354;2023-02-28T16:37:47;16.27;;;8.63;;
44696;SDS011;57264;47.480;19.354;2023-02-28T16:40:16;21.17;;;10.30;;
44696;SDS011;57264;47.480;19.354;2023-02-28T16:42:52;18.08;;;9.75;;
44696;SDS011;57264;47.480;19.354;2023-02-28T16:45:20;13.90;;;9.18;;
44696;SDS011;57264;47.480;19.354;2023-02-28T16:47:48;15.27;;;9.80;;
44696;SDS011;57264;47.480;19.354;2023-02-28T16:50:14;13.27;;;7.80;;
44696;SDS011;57264;47.480;19.354;2023-02-28T16:52:54;17.02;;;8.20;;
44696;SDS011;57264;47.480;19.354;2023-02-28T16:55:20;12.13;;;8.38;;
44696;SDS011;57264;47.480;19.354;2023-02-28T16:57:51;12.38;;;8.23;;
44696;SDS011;57264;47.480;19.354;2023-02-28T17:00:19;11.82;;;8.93;;
44696;SDS011;57264;47.480;19.354;2023-02-28T17:02:45;20.17;;;9.00;;
44696;SDS011;57264;47.480;19.354;2023-02-28T17:05:11;20.90;;;8.53;;
44696;SDS011;57264;47.480;19.354;2023-02-28T17:07:37;13.15;;;8.52;;
44696;SDS011;57264;47.480;19.354;2023-02-28T17:10:10;14.40;;;9.15;;
44696;SDS011;57264;47.480;19.354;2023-02-28T17:12:39;10.93;;;7.93;;
44696;SDS011;57264;47.480;19.354;2023-02-28T17:15:05;13.23;;;7.87;;
44696;SDS011;57264;47.480;19.354;2023-02-28T17:17:34;10.88;;;7.10;;
44696;SDS011;57264;47.480;19.354;2023-02-28T17:19:59;10.57;;;7.80;;
44696;SDS011;57264;47.480;19.354;2023-02-28T17:22:24;11.77;;;8.33;;
44696;SDS011;57264;47.480;19.354;2023-02-28T17:24:51;14.70;;;8.82;;
44696;SDS011;57264;47.480;19.354;2023-02-28T17:27:20;16.88;;;8.70;;
44696;SDS011;57264;47.480;19.354;2023-02-28T17:29:46;21.17;;;8.73;;
44696;SDS011;57264;47.480;19.354;2023-02-28T17:32:12;16.33;;;9.57;;
44696;SDS011;57264;47.480;19.354;2023-02-28T17:34:38;15.90;;;8.43;;
44696;SDS011;57264;47.480;19.354;2023-02-28T17:37:04;15.23;;;8.93;;
44696;SDS011;57264;47.480;19.354;2023-02-28T17:39:29;15.70;;;9.53;;
44696;SDS011;57264;47.480;19.354;2023-02-28T17:41:56;13.00;;;8.40;;
44696;SDS011;57264;47.480;19.354;2023-02-28T17:44:22;13.93;;;9.25;;
44696;SDS011;57264;47.480;19.354;2023-02-28T17:46:49;13.27;;;9.98;;
44696;SDS011;57264;47.480;19.354;2023-02-28T17:49:16;13.73;;;9.80;;
44696;SDS011;57264;47.480;19.354;2023-02-28T17:51:42;12.73;;;8.52;;
44696;SDS011;57264;47.480;19.354;2023-02-28T17:54:08;12.20;;;9.37;;
44696;SDS011;57264;47.480;19.354;2023-02-28T17:56:34;13.83;;;8.90;;
44696;SDS011;57264;47.480;19.354;2023-02-28T17:58:59;16.93;;;9.83;;
44696;SDS011;57264;47.480;19.354;2023-02-28T18:01:25;19.60;;;9.60;;
44696;SDS011;57264;47.480;19.354;2023-02-28T18:03:51;16.70;;;10.18;;
44696;SDS011;57264;47.480;19.354;2023-02-28T18:06:24;18.83;;;10.55;;
44696;SDS011;57264;47.480;19.354;2023-02-28T18:08:52;18.52;;;11.05;;
44696;SDS011;57264;47.480;19.354;2023-02-28T18:11:18;20.40;;;11.37;;
44696;SDS011;57264;47.480;19.354;2023-02-28T18:13:46;24.17;;;11.38;;
44696;SDS011;57264;47.480;19.354;2023-02-28T18:16:14;22.13;;;11.77;;
44696;SDS011;57264;47.480;19.354;2023-02-28T18:18:40;23.52;;;11.73;;
44696;SDS011;57264;47.480;19.354;2023-02-28T18:21:07;22.73;;;12.02;;
44696;SDS011;57264;47.480;19.354;2023-02-28T18:23:34;17.30;;;10.18;;
44696;SDS011;57264;47.480;19.354;2023-02-28T18:26:00;13.77;;;10.18;;
44696;SDS011;57264;47.480;19.354;2023-02-28T18:28:26;16.45;;;10.55;;
44696;SDS011;57264;47.480;19.354;2023-02-28T18:30:51;17.10;;;10.93;;
44696;SDS011;57264;47.480;19.354;2023-02-28T18:33:17;16.43;;;10.93;;
44696;SDS011;57264;47.480;19.354;2023-02-28T18:35:44;28.15;;;11.43;;
44696;SDS011;57264;47.480;19.354;2023-02-28T18:38:11;28.37;;;12.90;;
44696;SDS011;57264;47.480;19.354;2023-02-28T18:40:39;19.77;;;12.10;;
44696;SDS011;57264;47.480;19.354;2023-02-28T18:43:06;20.67;;;12.77;;
44696;SDS011;57264;47.480;19.354;2023-02-28T18:45:36;24.92;;;14.32;;
44696;SDS011;57264;47.480;19.354;2023-02-28T18:48:02;22.98;;;14.55;;
44696;SDS011;57264;47.480;19.354;2023-02-28T18:50:28;23.33;;;14.30;;
44696;SDS011;57264;47.480;19.354;2023-02-28T18:52:53;20.67;;;13.03;;
44696;SDS011;57264;47.480;19.354;2023-02-28T18:55:19;17.90;;;11.93;;
44696;SDS011;57264;47.480;19.354;2023-02-28T18:57:45;22.17;;;12.37;;
44696;SDS011;57264;47.480;19.354;2023-02-28T19:00:11;19.98;;;10.45;;
44696;SDS011;57264;47.480;19.354;2023-02-28T19:02:38;13.45;;;8.88;;
44696;SDS011;57264;47.480;19.354;2023-02-28T19:05:04;19.73;;;8.90;;
44696;SDS011;57264;47.480;19.354;2023-02-28T19:07:30;16.10;;;9.47;;
44696;SDS011;57264;47.480;19.354;2023-02-28T19:09:55;13.53;;;9.80;;
44696;SDS011;57264;47.480;19.354;2023-02-28T19:12:21;15.80;;;9.90;;
44696;SDS011;57264;47.480;19.354;2023-02-28T19:14:46;14.10;;;9.33;;
44696;SDS011;57264;47.480;19.354;2023-02-28T19:17:12;21.20;;;9.10;;
44696;SDS011;57264;47.480;19.354;2023-02-28T19:19:40;13.82;;;8.30;;
44696;SDS011;57264;47.480;19.354;2023-02-28T19:22:05;12.03;;;8.70;;
44696;SDS011;57264;47.480;19.354;2023-02-28T19:24:31;14.07;;;8.40;;
44696;SDS011;57264;47.480;19.354;2023-02-28T19:26:56;12.43;;;9.00;;
44696;SDS011;57264;47.480;19.354;2023-02-28T19:29:25;15.00;;;9.82;;
44696;SDS011;57264;47.480;19.354;2023-02-28T19:31:50;12.13;;;8.37;;
44696;SDS011;57264;47.480;19.354;2023-02-28T19:34:17;14.55;;;9.00;;
44696;SDS011;57264;47.480;19.354;2023-02-28T19:36:42;14.27;;;9.20;;
44696;SDS011;57264;47.480;19.354;2023-02-28T19:39:08;14.13;;;9.03;;
44696;SDS011;57264;47.480;19.354;2023-02-28T19:41:36;13.35;;;9.73;;
44696;SDS011;57264;47.480;19.354;2023-02-28T19:44:02;13.10;;;9.73;;
44696;SDS011;57264;47.480;19.354;2023-02-28T19:46:27;18.03;;;10.43;;
44696;SDS011;57264;47.480;19.354;2023-02-28T19:48:53;15.47;;;10.33;;
44696;SDS011;57264;47.480;19.354;2023-02-28T19:51:18;13.37;;;9.87;;
44696;SDS011;57264;47.480;19.354;2023-02-28T19:53:44;16.52;;;11.13;;
44696;SDS011;57264;47.480;19.354;2023-02-28T19:56:10;18.43;;;11.90;;
44696;SDS011;57264;47.480;19.354;2023-02-28T19:58:36;17.75;;;11.25;;
44696;SDS011;57264;47.480;19.354;2023-02-28T20:01:21;18.27;;;12.23;;
44696;SDS011;57264;47.480;19.354;2023-02-28T20:03:47;21.60;;;10.57;;
44696;SDS011;57264;47.480;19.354;2023-02-28T20:06:14;15.85;;;11.25;;
44696;SDS011;57264;47.480;19.354;2023-02-28T20:08:39;18.90;;;11.23;;
44696;SDS011;57264;47.480;19.354;2023-02-28T20:11:06;18.40;;;10.60;;
44696;SDS011;57264;47.480;19.354;2023-02-28T20:13:33;14.30;;;10.68;;
44696;SDS011;57264;47.480;19.354;2023-02-28T20:16:00;18.73;;;12.53;;
44696;SDS011;57264;47.480;19.354;2023-02-28T20:18:27;17.20;;;11.32;;
44696;SDS011;57264;47.480;19.354;2023-02-28T20:20:53;18.07;;;11.70;;
44696;SDS011;57264;47.480;19.354;2023-02-28T20:23:18;17.67;;;11.70;;
44696;SDS011;57264;47.480;19.354;2023-02-28T20:25:44;18.08;;;12.38;;
44696;SDS011;57264;47.480;19.354;2023-02-28T20:28:10;19.60;;;11.57;;
44696;SDS011;57264;47.480;19.354;2023-02-28T20:30:37;18.10;;;11.70;;
44696;SDS011;57264;47.480;19.354;2023-02-28T20:33:03;17.95;;;10.93;;
44696;SDS011;57264;47.480;19.354;2023-02-28T20:35:28;16.40;;;11.67;;
44696;SDS011;57264;47.480;19.354;2023-02-28T20:37:54;19.20;;;11.63;;
44696;SDS011;57264;47.480;19.354;2023-02-28T20:40:19;20.50;;;12.60;;
44696;SDS011;57264;47.480;19.354;2023-02-28T20:42:45;18.83;;;12.37;;
44696;SDS011;57264;47.480;19.354;2023-02-28T20:45:11;20.33;;;12.45;;
44696;SDS011;57264;47.480;19.354;2023-02-28T20:47:36;22.67;;;11.20;;
44696;SDS011;57264;47.480;19.354;2023-02-28T20:50:02;20.77;;;12.13;;
44696;SDS011;57264;47.480;19.354;2023-02-28T20:52:28;20.90;;;13.20;;
44696;SDS011;57264;47.480;19.354;2023-02-28T20:54:53;20.57;;;12.70;;
44696;SDS011;57264;47.480;19.354;2023-02-28T20:57:19;21.43;;;13.90;;
44696;SDS011;57264;47.480;19.354;2023-02-28T20:59:44;20.70;;;12.97;;
44696;SDS011;57264;47.480;19.354;2023-02-28T21:02:12;22.73;;;14.63;;
44696;SDS011;57264;47.480;19.354;2023-02-28T21:04:41;27.10;;;17.48;;
44696;SDS011;57264;47.480;19.354;2023-02-28T21:07:08;29.05;;;17.65;;
44696;SDS011;57264;47.480;19.354;2023-02-28T21:09:36;36.50;;;20.37;;
44696;SDS011;57264;47.480;19.354;2023-02-28T21:12:02;37.13;;;22.50;;
44696;SDS011;57264;47.480;19.354;2023-02-28T21:14:28;34.03;;;20.23;;
44696;SDS011;57264;47.480;19.354;2023-02-28T21:16:53;30.03;;;19.20;;
44696;SDS011;57264;47.480;19.354;2023-02-28T21:19:24;29.23;;;18.67;;
44696;SDS011;57264;47.480;19.354;2023-02-28T21:21:50;31.60;;;18.02;;
44696;SDS011;57264;47.480;19.354;2023-02-28T21:24:16;30.23;;;18.53;;
44696;SDS011;57264;47.480;19.354;2023-02-28T21:26:44;32.80;;;18.98;;
44696;SDS011;57264;47.480;19.354;2023-02-28T21:29:12;30.27;;;18.40;;
44696;SDS011;57264;47.480;19.354;2023-02-28T21:31:39;32.75;;;17.63;;
44696;SDS011;57264;47.480;19.354;2023-02-28T21:34:06;29.87;;;16.73;;
44696;SDS011;57264;47.480;19.354;2023-02-28T21:36:35;24.20;;;15.68;;
44696;SDS011;57264;47.480;19.354;2023-02-28T21:39:12;26.83;;;15.35;;
44696;SDS011;57264;47.480;19.354;2023-02-28T21:41:40;22.10;;;14.50;;
44696;SDS011;57264;47.480;19.354;2023-02-28T21:44:08;26.42;;;16.02;;
44696;SDS011;57264;47.480;19.354;2023-02-28T21:46:42;23.60;;;14.25;;
44696;SDS011;57264;47.480;19.354;2023-02-28T21:49:12;22.67;;;15.55;;
44696;SDS011;57264;47.480;19.354;2023-02-28T21:51:39;27.15;;;15.35;;
44696;SDS011;57264;47.480;19.354;2023-02-28T21:54:06;25.55;;;15.38;;
44696;SDS011;57264;47.480;19.354;2023-02-28T21:56:32;21.40;;;13.75;;
44696;SDS011;57264;47.480;19.354;2023-02-28T21:58:59;23.88;;;14.90;;
44696;SDS011;57264;47.480;19.354;2023-02-28T22:01:27;23.25;;;16.45;;
44696;SDS011;57264;47.480;19.354;2023-02-28T22:03:55;24.63;;;15.80;;
44696;SDS011;57264;47.480;19.354;2023-02-28T22:06:23;25.27;;;14.35;;
44696;SDS011;57264;47.480;19.354;2023-02-28T22:08:51;23.33;;;13.85;;
44696;SDS011;57264;47.480;19.354;2023-02-28T22:11:19;19.30;;;12.32;;
44696;SDS011;57264;47.480;19.354;2023-02-28T22:13:45;20.58;;;14.15;;
44696;SDS011;57264;47.480;19.354;2023-02-28T22:16:16;21.50;;;13.10;;
44696;SDS011;57264;47.480;19.354;2023-02-28T22:18:44;24.48;;;14.27;;
44696;SDS011;57264;47.480;19.354;2023-02-28T22:21:12;26.10;;;14.90;;
44696;SDS011;57264;47.480;19.354;2023-02-28T22:23:41;19.90;;;13.60;;
44696;SDS011;57264;47.480;19.354;2023-02-28T22:26:09;20.55;;;13.00;;
44696;SDS011;57264;47.480;19.354;2023-02-28T22:28:38;21.13;;;13.95;;
44696;SDS011;57264;47.480;19.354;2023-02-28T22:31:11;19.55;;;13.63;;
44696;SDS011;57264;47.480;19.354;2023-02-28T22:33:42;22.63;;;14.85;;
44696;SDS011;57264;47.480;19.354;2023-02-28T22:36:09;23.10;;;14.90;;
44696;SDS011;57264;47.480;19.354;2023-02-28T22:38:37;24.33;;;14.75;;
44696;SDS011;57264;47.480;19.354;2023-02-28T22:41:04;27.35;;;15.32;;
44696;SDS011;57264;47.480;19.354;2023-02-28T22:43:31;23.10;;;14.60;;
44696;SDS011;57264;47.480;19.354;2023-02-28T22:46:01;25.50;;;15.68;;
44696;SDS011;57264;47.480;19.354;2023-02-28T22:48:28;26.15;;;15.13;;
44696;SDS011;57264;47.480;19.354;2023-02-28T22:51:02;23.45;;;14.95;;
44696;SDS011;57264;47.480;19.354;2023-02-28T22:53:33;22.95;;;15.90;;
44696;SDS011;57264;47.480;19.354;2023-02-28T22:56:00;24.13;;;14.38;;
44696;SDS011;57264;47.480;19.354;2023-02-28T22:58:26;24.17;;;15.07;;
44696;SDS011;57264;47.480;19.354;2023-02-28T23:00:52;24.85;;;15.95;;
44696;SDS011;57264;47.480;19.354;2023-02-28T23:03:22;26.38;;;16.00;;
44696;SDS011;57264;47.480;19.354;2023-02-28T23:05:49;25.25;;;15.25;;
44696;SDS011;57264;47.480;19.354;2023-02-28T23:08:15;26.77;;;15.88;;
44696;SDS011;57264;47.480;19.354;2023-02-28T23:10:47;25.58;;;16.45;;
44696;SDS011;57264;47.480;19.354;2023-02-28T23:13:14;22.92;;;14.80;;
44696;SDS011;57264;47.480;19.354;2023-02-28T23:15:42;25.40;;;15.75;;
44696;SDS011;57264;47.480;19.354;2023-02-28T23:18:23;25.75;;;16.02;;
44696;SDS011;57264;47.480;19.354;2023-02-28T23:20:49;26.93;;;16.47;;
44696;SDS011;57264;47.480;19.354;2023-02-28T23:23:15;28.10;;;17.17;;
44696;SDS011;57264;47.480;19.354;2023-02-28T23:25:41;30.53;;;17.83;;
44696;SDS011;57264;47.480;19.354;2023-02-28T23:28:07;29.48;;;18.35;;
44696;SDS011;57264;47.480;19.354;2023-02-28T23:30:35;30.90;;;18.80;;
44696;SDS011;57264;47.480;19.354;2023-02-28T23:33:03;31.17;;;19.50;;
44696;SDS011;57264;47.480;19.354;2023-02-28T23:35:30;30.27;;;18.45;;
44696;SDS011;57264;47.480;19.354;2023-02-28T23:37:57;29.35;;;19.83;;
44696;SDS011;57264;47.480;19.354;2023-02-28T23:40:26;40.42;;;21.13;;
44696;SDS011;57264;47.480;19.354;2023-02-28T23:42:52;30.13;;;18.10;;
44696;SDS011;57264;47.480;19.354;2023-02-28T23:45:18;26.60;;;17.47;;
44696;SDS011;57264;47.480;19.354;2023-02-28T23:47:44;28.50;;;16.42;;
44696;SDS011;57264;47.480;19.354;2023-02-28T23:50:10;24.35;;;16.10;;
44696;SDS011;57264;47.480;19.354;2023-02-28T23:52:36;25.10;;;15.15;;
44696;SDS011;57264;47.480;19.354;2023-02-28T23:55:01;24.13;;;14.13;;
44696;SDS011;57264;47.480;19.354;2023-02-28T23:57:27;25.63;;;15.47;;
44696;SDS011;57264;47.480;19.354;2023-02-28T23:59:54;29.38;;;16.27;;
